createdAt,value
2023-05-05T00:00:25.740Z,92.61
2023-05-05T00:02:53.486Z,92.98
2023-05-05T00:05:20.371Z,93.18
2023-05-05T00:07:46.950Z,92.89
2023-05-05T00:10:13.697Z,91.29
2023-05-05T00:12:40.473Z,93.76
2023-05-05T00:15:08.587Z,93.35
2023-05-05T00:17:35.226Z,93.62
2023-05-05T00:20:02.129Z,92.46
2023-05-05T00:22:29.084Z,93.58
2023-05-05T00:24:56.077Z,93.12
2023-05-05T00:27:22.829Z,94.30
2023-05-05T00:29:49.400Z,93.89
2023-05-05T00:32:16.203Z,94.23
2023-05-05T00:34:42.823Z,93.83
2023-05-05T00:37:09.450Z,93.37
2023-05-05T00:39:37.462Z,93.76
2023-05-05T00:42:04.355Z,94.30
2023-05-05T00:44:37.628Z,93.78
2023-05-05T00:47:04.507Z,94.00
2023-05-05T00:49:31.743Z,93.91
2023-05-05T00:51:59.249Z,94.02
2023-05-05T00:54:26.091Z,94.97
2023-05-05T00:56:53.448Z,94.66
2023-05-05T00:59:20.886Z,95.42
2023-05-05T01:01:47.613Z,94.27
2023-05-05T01:04:14.223Z,93.34
2023-05-05T01:06:54.053Z,94.51
2023-05-05T01:09:57.939Z,94.59
2023-05-05T01:12:37.741Z,93.46
2023-05-05T01:15:15.261Z,95.02
2023-05-05T01:17:51.687Z,94.83
2023-05-05T01:20:23.747Z,95.21
2023-05-05T01:22:55.025Z,95.04
2023-05-05T01:25:30.380Z,93.94
2023-05-05T01:28:15.641Z,95.14
2023-05-05T01:30:48.026Z,95.04
2023-05-05T01:33:19.298Z,95.03
2023-05-05T01:35:55.415Z,94.80
2023-05-05T01:38:26.281Z,94.39
2023-05-05T01:40:57.688Z,94.84
2023-05-05T01:43:29.591Z,95.10
2023-05-05T01:45:58.633Z,93.42
2023-05-05T01:48:26.469Z,95.87
2023-05-05T01:50:54.089Z,93.34
2023-05-05T01:53:23.775Z,94.60
2023-05-05T01:55:52.677Z,94.62
2023-05-05T01:58:22.811Z,93.44
2023-05-05T02:00:51.030Z,94.25
2023-05-05T02:03:19.692Z,92.35
2023-05-05T02:05:48.623Z,93.47
2023-05-05T02:08:16.461Z,93.59
2023-05-05T02:10:45.000Z,93.58
2023-05-05T02:13:13.281Z,91.66
2023-05-05T02:15:41.194Z,93.07
2023-05-05T02:18:11.997Z,94.57
2023-05-05T02:20:39.875Z,95.24
2023-05-05T02:23:08.069Z,96.23
2023-05-05T02:25:42.076Z,95.23
2023-05-05T02:28:18.482Z,95.35
2023-05-05T02:30:51.555Z,93.55
2023-05-05T02:33:22.105Z,96.02
2023-05-05T02:35:51.438Z,96.15
2023-05-05T02:38:26.461Z,97.11
2023-05-05T02:40:57.463Z,96.72
2023-05-05T02:43:25.887Z,94.69
2023-05-05T02:45:52.676Z,92.76
2023-05-05T02:48:19.398Z,94.52
2023-05-05T02:50:46.009Z,94.84
2023-05-05T02:53:13.023Z,96.24
2023-05-05T02:55:45.437Z,96.52
2023-05-05T02:58:23.715Z,96.13
2023-05-05T03:00:53.787Z,95.23
2023-05-05T03:03:30.842Z,94.96
2023-05-05T03:06:27.364Z,96.07
2023-05-05T03:09:03.124Z,95.52
2023-05-05T03:11:37.030Z,94.86
2023-05-05T03:14:13.212Z,95.99
2023-05-05T03:16:42.650Z,94.97
2023-05-05T03:19:12.410Z,94.84
2023-05-05T03:21:40.885Z,95.74
2023-05-05T03:24:14.053Z,94.47
2023-05-05T03:26:41.824Z,93.89
2023-05-05T03:29:08.565Z,94.47
2023-05-05T03:31:35.687Z,94.29
2023-05-05T03:34:02.362Z,93.21
2023-05-05T03:36:29.944Z,93.01
2023-05-05T03:38:56.571Z,93.92
2023-05-05T03:41:23.844Z,93.48
2023-05-05T03:43:51.639Z,94.80
2023-05-05T03:46:18.356Z,96.61
2023-05-05T03:48:45.415Z,96.74
2023-05-05T03:51:13.175Z,97.42
2023-05-05T03:53:40.118Z,97.09
2023-05-05T03:56:06.905Z,96.76
2023-05-05T03:58:33.604Z,97.52
2023-05-05T04:01:00.275Z,96.61
2023-05-05T04:03:27.071Z,97.22
2023-05-05T04:05:53.876Z,96.41
2023-05-05T04:08:20.530Z,96.81
2023-05-05T04:10:47.125Z,97.00
2023-05-05T04:13:13.829Z,96.34
2023-05-05T04:15:47.181Z,96.61
2023-05-05T04:18:14.306Z,96.81
2023-05-05T04:20:41.121Z,96.90
2023-05-05T04:23:10.117Z,96.35
2023-05-05T04:25:36.764Z,96.25
2023-05-05T04:28:03.504Z,96.24
2023-05-05T04:30:30.158Z,95.98
2023-05-05T04:32:57.025Z,95.74
2023-05-05T04:35:23.661Z,95.60
2023-05-05T04:37:50.300Z,94.80
2023-05-05T04:40:17.084Z,94.93
2023-05-05T04:42:43.734Z,94.58
2023-05-05T04:45:10.828Z,94.90
2023-05-05T04:47:38.883Z,94.45
2023-05-05T04:50:06.372Z,94.33
2023-05-05T04:52:33.439Z,94.09
2023-05-05T04:55:00.610Z,93.42
2023-05-05T04:57:27.489Z,93.20
2023-05-05T04:59:54.076Z,92.65
2023-05-05T05:02:21.280Z,92.41
2023-05-05T05:04:47.966Z,92.46
2023-05-05T05:07:15.153Z,91.94
2023-05-05T05:09:41.756Z,92.11
2023-05-05T05:12:09.800Z,91.35
2023-05-05T05:14:40.107Z,90.99
2023-05-05T05:17:07.882Z,90.67
2023-05-05T05:19:34.673Z,90.41
2023-05-05T05:22:01.404Z,90.44
2023-05-05T05:24:28.118Z,90.24
2023-05-05T05:26:54.772Z,89.50
2023-05-05T05:29:21.447Z,88.95
2023-05-05T05:31:50.334Z,88.51
2023-05-05T05:34:16.995Z,88.21
2023-05-05T05:36:43.637Z,87.93
2023-05-05T05:39:10.255Z,86.93
2023-05-05T05:41:36.841Z,86.77
2023-05-05T05:44:03.521Z,85.67
2023-05-05T05:46:30.292Z,85.24
2023-05-05T05:48:57.367Z,83.88
2023-05-05T05:51:24.017Z,83.81
2023-05-05T05:53:51.893Z,83.83
2023-05-05T05:56:18.487Z,83.25
2023-05-05T05:58:45.333Z,82.63
2023-05-05T06:01:12.034Z,81.68
2023-05-05T06:03:38.725Z,81.33
2023-05-05T06:06:05.619Z,80.71
2023-05-05T06:08:32.320Z,79.59
2023-05-05T06:11:00.595Z,79.33
2023-05-05T06:13:27.366Z,78.27
2023-05-05T06:15:55.134Z,79.01
2023-05-05T06:18:21.878Z,77.89
2023-05-05T06:20:52.394Z,76.75
2023-05-05T06:23:23.291Z,76.42
2023-05-05T06:25:51.208Z,74.31
2023-05-05T06:28:18.733Z,75.26
2023-05-05T06:30:45.498Z,74.67
2023-05-05T06:33:15.120Z,73.09
2023-05-05T06:35:41.772Z,70.25
2023-05-05T06:38:08.616Z,71.84
2023-05-05T06:40:35.406Z,70.77
2023-05-05T06:43:02.061Z,69.15
2023-05-05T06:45:28.693Z,69.43
2023-05-05T06:47:55.714Z,68.84
2023-05-05T06:50:22.386Z,68.58
2023-05-05T06:52:49.108Z,67.86
2023-05-05T06:55:15.841Z,67.71
2023-05-05T06:57:42.464Z,67.68
2023-05-05T07:00:11.484Z,66.86
2023-05-05T07:02:38.698Z,66.29
2023-05-05T07:05:05.997Z,65.62
2023-05-05T07:07:32.718Z,65.05
2023-05-05T07:09:59.391Z,63.18
2023-05-05T07:12:26.138Z,63.24
2023-05-05T07:14:52.794Z,62.83
2023-05-05T07:17:19.495Z,61.97
2023-05-05T07:19:46.119Z,60.89
2023-05-05T07:22:12.821Z,60.78
2023-05-05T07:24:39.461Z,60.89
2023-05-05T07:27:06.992Z,60.93
2023-05-05T07:29:33.637Z,60.02
2023-05-05T07:32:00.314Z,59.71
2023-05-05T07:34:27.604Z,58.56
2023-05-05T07:36:57.542Z,56.51
2023-05-05T07:39:24.213Z,54.88
2023-05-05T07:41:51.907Z,53.61
2023-05-05T07:44:18.525Z,51.28
2023-05-05T07:46:48.005Z,50.20
2023-05-05T07:49:14.497Z,49.13
2023-05-05T07:51:41.339Z,49.19
2023-05-05T07:54:08.373Z,49.55
2023-05-05T07:56:38.028Z,48.85
2023-05-05T07:59:04.682Z,48.72
2023-05-05T08:01:31.277Z,49.38
2023-05-05T08:03:58.188Z,52.51
2023-05-05T08:06:25.245Z,52.95
2023-05-05T08:08:53.428Z,51.40
2023-05-05T08:11:20.820Z,53.31
2023-05-05T08:13:48.650Z,54.08
2023-05-05T08:16:15.813Z,54.48
2023-05-05T08:18:42.508Z,54.68
2023-05-05T08:21:10.080Z,54.58
2023-05-05T08:23:38.752Z,55.55
2023-05-05T08:26:06.728Z,55.68
2023-05-05T08:28:38.981Z,55.69
2023-05-05T08:31:06.849Z,56.22
2023-05-05T08:33:34.385Z,56.42
2023-05-05T08:36:01.178Z,55.78
2023-05-05T08:38:27.837Z,54.91
2023-05-05T08:40:57.587Z,55.24
2023-05-05T08:43:24.322Z,54.92
2023-05-05T08:45:53.697Z,55.70
2023-05-05T08:48:21.050Z,52.77
2023-05-05T08:50:52.872Z,52.01
2023-05-05T08:53:36.651Z,49.62
2023-05-05T08:56:08.939Z,48.54
2023-05-05T08:58:37.559Z,47.06
2023-05-05T09:01:07.447Z,46.62
2023-05-05T09:03:36.867Z,45.74
2023-05-05T09:06:04.050Z,44.87
2023-05-05T09:08:31.865Z,46.00
2023-05-05T09:10:59.680Z,43.23
2023-05-05T09:13:26.453Z,42.22
2023-05-05T09:15:53.182Z,43.51
2023-05-05T09:18:19.801Z,45.24
2023-05-05T09:20:46.474Z,46.32
2023-05-05T09:23:15.238Z,46.16
2023-05-05T09:25:45.235Z,48.44
2023-05-05T09:28:16.478Z,49.08
2023-05-05T09:30:48.375Z,48.64
2023-05-05T09:33:28.997Z,48.53
2023-05-05T09:35:56.228Z,48.65
2023-05-05T09:38:28.563Z,48.10
2023-05-05T09:40:55.294Z,48.09
2023-05-05T09:43:23.901Z,46.63
2023-05-05T09:45:51.211Z,46.61
2023-05-05T09:48:26.749Z,46.14
2023-05-05T09:50:58.791Z,46.08
2023-05-05T09:53:26.579Z,44.57
2023-05-05T09:56:00.977Z,43.42
2023-05-05T09:58:29.544Z,44.02
2023-05-05T10:00:57.668Z,43.64
2023-05-05T10:03:25.305Z,43.99
2023-05-05T10:05:54.164Z,44.62
2023-05-05T10:08:22.691Z,44.90
2023-05-05T10:10:56.292Z,45.41
2023-05-05T10:13:24.544Z,45.17
2023-05-05T10:15:53.253Z,46.36
2023-05-05T10:18:22.734Z,47.04
2023-05-05T10:20:53.081Z,46.40
2023-05-05T10:23:22.709Z,46.55
2023-05-05T10:26:01.691Z,47.00
2023-05-05T10:28:42.193Z,46.07
2023-05-05T10:31:25.633Z,48.68
2023-05-05T10:33:58.707Z,49.01
2023-05-05T10:36:25.920Z,49.01
2023-05-05T10:38:57.256Z,48.59
2023-05-05T10:41:26.110Z,48.57
2023-05-05T10:43:57.685Z,47.04
2023-05-05T10:46:27.118Z,45.68
2023-05-05T10:48:56.982Z,45.16
2023-05-05T10:51:46.950Z,43.07
2023-05-05T10:54:38.523Z,41.88
2023-05-05T10:57:09.753Z,42.27
2023-05-05T10:59:39.171Z,42.65
2023-05-05T11:02:22.151Z,43.02
2023-05-05T11:05:17.033Z,43.52
2023-05-05T11:07:50.052Z,40.98
2023-05-05T11:10:23.295Z,42.21
2023-05-05T11:13:10.199Z,41.30
2023-05-05T11:15:38.064Z,42.16
2023-05-05T11:18:08.294Z,42.83
2023-05-05T11:20:35.447Z,43.66
2023-05-05T11:23:05.448Z,44.75
2023-05-05T11:25:35.750Z,44.75
2023-05-05T11:28:08.653Z,46.17
2023-05-05T11:30:36.700Z,46.78
2023-05-05T11:33:38.374Z,46.07
2023-05-05T11:36:06.794Z,44.77
2023-05-05T11:38:52.490Z,45.32
2023-05-05T11:41:33.886Z,43.71
2023-05-05T11:44:09.895Z,42.09
2023-05-05T11:46:36.571Z,41.98
2023-05-05T11:49:03.611Z,42.02
2023-05-05T11:51:31.686Z,43.05
2023-05-05T11:53:59.213Z,42.14
2023-05-05T11:56:29.284Z,42.65
2023-05-05T11:59:11.413Z,42.46
2023-05-05T12:01:41.500Z,42.91
2023-05-05T12:04:26.646Z,42.76
2023-05-05T12:06:55.448Z,42.97
2023-05-05T12:09:23.272Z,42.28
2023-05-05T12:11:54.231Z,41.33
2023-05-05T12:14:22.847Z,42.25
2023-05-05T12:17:04.085Z,40.52
2023-05-05T12:19:33.408Z,39.78
2023-05-05T12:22:00.978Z,40.15
2023-05-05T12:24:28.090Z,38.60
2023-05-05T12:26:54.673Z,38.69
2023-05-05T12:29:25.611Z,38.65
2023-05-05T12:31:52.390Z,39.00
2023-05-05T12:34:19.564Z,37.71
2023-05-05T12:36:46.714Z,37.72
2023-05-05T12:39:13.467Z,37.34
2023-05-05T12:41:40.354Z,39.11
2023-05-05T12:44:07.181Z,38.09
2023-05-05T12:46:47.176Z,37.13
2023-05-05T12:49:15.277Z,38.23
2023-05-05T12:51:56.290Z,38.37
2023-05-05T12:54:25.149Z,36.63
2023-05-05T12:56:51.796Z,35.08
2023-05-05T12:59:21.201Z,33.60
2023-05-05T13:02:00.154Z,33.97
2023-05-05T13:04:28.120Z,34.50
2023-05-05T13:07:15.779Z,33.48
2023-05-05T13:09:42.706Z,33.70
2023-05-05T13:12:12.145Z,35.97
2023-05-05T13:14:39.574Z,36.22
2023-05-05T13:17:06.517Z,38.10
2023-05-05T13:19:35.555Z,38.81
2023-05-05T13:22:02.615Z,38.60
2023-05-05T13:24:46.379Z,39.66
2023-05-05T13:27:13.865Z,40.27
2023-05-05T13:29:41.743Z,41.09
2023-05-05T13:32:08.495Z,40.64
2023-05-05T13:34:35.096Z,39.16
2023-05-05T13:37:01.722Z,38.31
2023-05-05T13:39:28.391Z,38.68
2023-05-05T13:41:55.078Z,38.50
2023-05-05T13:44:22.105Z,38.44
2023-05-05T13:46:48.894Z,39.38
2023-05-05T13:49:15.635Z,38.40
2023-05-05T13:51:42.302Z,39.70
2023-05-05T13:54:09.739Z,40.31
2023-05-05T13:56:36.615Z,40.91
2023-05-05T13:59:03.520Z,41.00
2023-05-05T14:01:30.553Z,41.39
2023-05-05T14:03:58.003Z,41.22
2023-05-05T14:06:25.088Z,42.11
2023-05-05T14:08:52.154Z,41.84
2023-05-05T14:11:20.773Z,42.02
2023-05-05T14:13:47.570Z,42.13
2023-05-05T14:16:14.560Z,42.35
2023-05-05T14:18:41.315Z,43.02
2023-05-05T14:21:08.045Z,43.25
2023-05-05T14:23:34.709Z,43.68
2023-05-05T14:26:01.513Z,42.54
2023-05-05T14:28:30.882Z,41.92
2023-05-05T14:30:57.902Z,42.53
2023-05-05T14:33:24.599Z,41.95
2023-05-05T14:35:51.298Z,42.92
2023-05-05T14:38:18.117Z,41.75
2023-05-05T14:40:44.810Z,41.87
2023-05-05T14:43:11.413Z,41.65
2023-05-05T14:45:38.135Z,41.77
2023-05-05T14:48:04.954Z,41.65
2023-05-05T14:50:31.551Z,40.67
2023-05-05T14:52:58.308Z,41.22
2023-05-05T14:55:25.136Z,41.01
2023-05-05T14:57:52.105Z,41.28
2023-05-05T15:00:19.845Z,41.04
2023-05-05T15:02:48.212Z,40.90
2023-05-05T15:05:15.218Z,40.90
2023-05-05T15:07:42.942Z,41.55
2023-05-05T15:10:11.668Z,41.13
2023-05-05T15:12:39.085Z,41.36
2023-05-05T15:15:11.100Z,41.02
2023-05-05T15:17:38.936Z,40.29
2023-05-05T15:20:06.889Z,40.03
2023-05-05T15:22:33.965Z,40.13
2023-05-05T15:25:01.266Z,39.71
2023-05-05T15:27:28.137Z,40.27
2023-05-05T15:30:41.792Z,40.21
2023-05-05T15:33:08.468Z,40.52
2023-05-05T15:35:36.293Z,40.00
2023-05-05T15:38:03.368Z,40.70
2023-05-05T15:40:30.148Z,40.21
2023-05-05T15:42:57.383Z,40.16
2023-05-05T15:45:24.111Z,40.10
2023-05-05T15:47:50.943Z,40.11
2023-05-05T15:50:17.678Z,40.41
2023-05-05T15:52:44.445Z,40.92
2023-05-05T15:55:11.902Z,40.96
2023-05-05T15:57:41.427Z,41.67
2023-05-05T16:00:08.532Z,42.91
2023-05-05T16:02:35.461Z,43.25
2023-05-05T16:05:02.449Z,43.15
2023-05-05T16:07:29.281Z,43.09
2023-05-05T16:09:56.824Z,43.13
2023-05-05T16:12:23.399Z,43.93
2023-05-05T16:14:50.043Z,43.77
2023-05-05T16:17:16.628Z,43.56
2023-05-05T16:19:43.211Z,43.08
2023-05-05T16:22:09.951Z,43.76
2023-05-05T16:24:36.690Z,43.99
2023-05-05T16:27:04.292Z,44.52
2023-05-05T16:29:30.930Z,44.29
2023-05-05T16:31:58.936Z,42.47
2023-05-05T16:34:25.789Z,41.99
2023-05-05T16:36:53.453Z,41.63
2023-05-05T16:39:20.162Z,41.26
2023-05-05T16:41:46.758Z,41.62
2023-05-05T16:44:14.488Z,41.37
2023-05-05T16:46:41.181Z,41.54
2023-05-05T16:49:07.885Z,42.27
2023-05-05T16:51:34.559Z,42.71
2023-05-05T16:54:01.245Z,43.61
2023-05-05T16:56:27.931Z,43.91
2023-05-05T16:58:54.550Z,44.70
2023-05-05T17:01:21.182Z,44.58
2023-05-05T17:03:47.788Z,44.18
2023-05-05T17:06:14.489Z,43.44
2023-05-05T17:08:41.171Z,43.67
2023-05-05T17:11:10.878Z,43.72
2023-05-05T17:13:38.241Z,44.43
2023-05-05T17:16:07.798Z,45.10
2023-05-05T17:18:34.595Z,45.43
2023-05-05T17:21:01.278Z,46.49
2023-05-05T17:23:28.051Z,46.41
2023-05-05T17:25:54.784Z,46.89
2023-05-05T17:28:21.396Z,47.42
2023-05-05T17:30:47.992Z,47.80
2023-05-05T17:33:16.865Z,48.08
2023-05-05T17:35:43.591Z,48.55
2023-05-05T17:38:10.168Z,49.07
2023-05-05T17:40:36.750Z,49.81
2023-05-05T17:43:03.343Z,50.00
2023-05-05T17:45:30.752Z,50.43
2023-05-05T17:47:57.550Z,50.97
2023-05-05T17:50:25.300Z,52.30
2023-05-05T17:52:52.081Z,52.40
2023-05-05T17:55:19.438Z,52.75
2023-05-05T17:57:47.339Z,52.81
2023-05-05T18:00:14.286Z,52.55
2023-05-05T18:02:41.091Z,53.37
2023-05-05T18:05:09.126Z,53.25
2023-05-05T18:07:35.874Z,55.24
2023-05-05T18:10:02.517Z,55.47
2023-05-05T18:12:29.108Z,57.17
2023-05-05T18:14:55.692Z,56.64
2023-05-05T18:17:22.509Z,56.15
2023-05-05T18:19:49.649Z,58.31
2023-05-05T18:22:16.465Z,59.02
2023-05-05T18:24:43.394Z,58.75
2023-05-05T18:27:09.975Z,59.31
2023-05-05T18:29:36.670Z,60.24
2023-05-05T18:32:05.921Z,60.75
2023-05-05T18:34:32.948Z,60.68
2023-05-05T18:37:00.429Z,60.45
2023-05-05T18:39:27.198Z,61.79
2023-05-05T18:41:53.890Z,62.48
2023-05-05T18:44:20.488Z,62.79
2023-05-05T18:46:47.321Z,64.11
2023-05-05T18:49:14.120Z,64.38
2023-05-05T18:51:41.444Z,64.02
2023-05-05T18:54:08.098Z,64.20
2023-05-05T18:56:34.697Z,64.23
2023-05-05T18:59:01.345Z,64.90
2023-05-05T19:01:28.197Z,65.70
2023-05-05T19:03:54.902Z,65.85
2023-05-05T19:06:21.676Z,67.84
2023-05-05T19:08:48.355Z,67.83
2023-05-05T19:11:15.261Z,68.97
2023-05-05T19:13:42.495Z,69.90
2023-05-05T19:16:11.272Z,70.72
2023-05-05T19:18:38.512Z,69.00
2023-05-05T19:21:05.413Z,67.43
2023-05-05T19:23:32.268Z,67.03
2023-05-05T19:25:59.022Z,67.52
2023-05-05T19:28:25.674Z,67.81
2023-05-05T19:30:52.557Z,69.72
2023-05-05T19:33:19.253Z,70.48
2023-05-05T19:35:45.908Z,71.83
2023-05-05T19:38:12.726Z,72.42
2023-05-05T19:40:39.848Z,72.63
2023-05-05T19:43:06.885Z,73.31
2023-05-05T19:45:33.977Z,73.84
2023-05-05T19:48:02.411Z,73.52
2023-05-05T19:50:30.483Z,73.95
2023-05-05T19:52:57.840Z,73.93
2023-05-05T19:55:24.607Z,74.51
2023-05-05T19:57:51.465Z,74.20
2023-05-05T20:00:19.619Z,74.65
2023-05-05T20:02:46.489Z,75.98
2023-05-05T20:05:14.967Z,76.22
2023-05-05T20:07:44.413Z,75.98
2023-05-05T20:10:13.215Z,76.12
2023-05-05T20:12:42.503Z,75.90
2023-05-05T20:15:10.972Z,76.76
2023-05-05T20:17:37.752Z,76.48
2023-05-05T20:20:04.815Z,75.57
2023-05-05T20:22:31.536Z,74.54
2023-05-05T20:24:58.354Z,73.89
2023-05-05T20:27:26.644Z,74.91
2023-05-05T20:29:54.646Z,75.92
2023-05-05T20:32:21.398Z,76.73
2023-05-05T20:34:50.906Z,76.33
2023-05-05T20:37:17.541Z,76.68
2023-05-05T20:39:44.261Z,76.29
2023-05-05T20:42:13.036Z,76.30
2023-05-05T20:44:40.075Z,76.92
2023-05-05T20:47:07.438Z,77.79
2023-05-05T20:49:34.652Z,78.70
2023-05-05T20:52:03.247Z,77.97
2023-05-05T20:54:36.222Z,77.39
2023-05-05T20:57:02.856Z,78.28
2023-05-05T20:59:29.565Z,77.90
2023-05-05T21:01:59.342Z,78.50
2023-05-05T21:04:26.018Z,78.57
2023-05-05T21:06:52.652Z,80.15
2023-05-05T21:09:21.475Z,79.74
2023-05-05T21:11:48.834Z,78.63
2023-05-05T21:14:16.446Z,78.86
2023-05-05T21:16:43.173Z,78.67
2023-05-05T21:19:09.863Z,78.35
2023-05-05T21:21:36.624Z,78.92
2023-05-05T21:24:05.512Z,79.80
2023-05-05T21:26:33.785Z,80.60
2023-05-05T21:29:00.382Z,80.40
2023-05-05T21:31:27.058Z,80.06
2023-05-05T21:33:54.266Z,80.64
2023-05-05T21:36:21.330Z,82.07
2023-05-05T21:38:47.998Z,81.92
2023-05-05T21:41:15.759Z,81.79
2023-05-05T21:43:42.397Z,81.70
2023-05-05T21:46:09.056Z,81.89
2023-05-05T21:48:38.790Z,81.84
2023-05-05T21:51:05.656Z,82.19
2023-05-05T21:53:32.237Z,82.58
2023-05-05T21:55:59.095Z,82.16
2023-05-05T21:58:28.417Z,82.88
2023-05-05T22:00:55.049Z,83.29
2023-05-05T22:03:21.705Z,83.13
2023-05-05T22:05:48.346Z,83.52
2023-05-05T22:08:14.958Z,83.29
2023-05-05T22:10:41.758Z,83.34
2023-05-05T22:13:10.358Z,83.25
2023-05-05T22:15:45.989Z,83.00
2023-05-05T22:18:13.173Z,83.21
2023-05-05T22:20:43.049Z,83.45
2023-05-05T22:23:09.625Z,82.64
2023-05-05T22:25:36.273Z,82.76
2023-05-05T22:28:02.916Z,82.83
2023-05-05T22:30:29.736Z,84.50
2023-05-05T22:32:56.585Z,85.62
2023-05-05T22:35:23.302Z,84.90
2023-05-05T22:37:49.920Z,85.66
2023-05-05T22:40:16.593Z,86.06
2023-05-05T22:42:43.818Z,86.32
2023-05-05T22:45:11.018Z,86.18
2023-05-05T22:47:40.907Z,85.16
2023-05-05T22:50:08.414Z,85.96
2023-05-05T22:52:35.149Z,86.72
2023-05-05T22:55:01.845Z,87.11
2023-05-05T22:57:28.555Z,87.89
2023-05-05T22:59:55.209Z,86.55
2023-05-05T23:02:22.032Z,86.02
2023-05-05T23:04:48.726Z,86.12
2023-05-05T23:07:15.497Z,85.83
2023-05-05T23:09:42.159Z,86.89
2023-05-05T23:12:08.833Z,87.01
2023-05-05T23:14:36.083Z,86.22
2023-05-05T23:17:03.964Z,86.52
2023-05-05T23:19:32.684Z,86.42
2023-05-05T23:22:01.748Z,87.83
2023-05-05T23:24:28.670Z,87.79
2023-05-05T23:26:58.346Z,87.89
2023-05-05T23:29:24.982Z,89.34
2023-05-05T23:31:51.608Z,87.97
2023-05-05T23:34:20.255Z,88.64
2023-05-05T23:36:46.833Z,88.71
2023-05-05T23:39:13.442Z,89.39
2023-05-05T23:41:40.044Z,88.47
2023-05-05T23:44:06.816Z,88.62
2023-05-05T23:46:33.439Z,88.38
2023-05-05T23:49:00.065Z,88.42
2023-05-05T23:51:27.413Z,88.62
2023-05-05T23:53:55.865Z,88.34
2023-05-05T23:56:23.540Z,87.49
2023-05-05T23:58:50.189Z,88.91
